createdAt,value
2022-08-09T00:00:23.968Z,18.12
2022-08-09T00:15:26.557Z,18.08
2022-08-09T00:30:25.484Z,17.77
2022-08-09T00:45:23.254Z,17.77
2022-08-09T01:00:25.788Z,17.38
2022-08-09T01:15:23.322Z,17.30
2022-08-09T01:30:33.739Z,16.67
2022-08-09T01:45:23.234Z,16.62
2022-08-09T02:00:35.467Z,16.60
2022-08-09T02:15:23.398Z,16.22
2022-08-09T02:30:23.378Z,15.40
2022-08-09T02:45:26.722Z,15.75
2022-08-09T03:00:25.877Z,15.73
2022-08-09T03:15:23.459Z,15.53
2022-08-09T03:30:32.996Z,15.10
2022-08-09T03:46:04.623Z,15.23
2022-08-09T04:00:23.764Z,14.77
2022-08-09T04:15:52.224Z,14.90
2022-08-09T04:30:23.663Z,14.52
2022-08-09T04:45:23.753Z,14.52
2022-08-09T05:00:23.693Z,14.38
2022-08-09T05:15:38.589Z,14.40
2022-08-09T05:30:23.871Z,14.40
2022-08-09T05:45:24.859Z,14.50
2022-08-09T06:00:29.031Z,14.80
2022-08-09T06:15:23.841Z,15.00
2022-08-09T06:30:23.920Z,16.70
2022-08-09T06:46:06.808Z,18.58
2022-08-09T07:00:54.932Z,20.38
2022-08-09T07:16:38.460Z,21.12
2022-08-09T07:30:25.186Z,22.58
2022-08-09T07:45:36.971Z,23.67
2022-08-09T08:00:36.332Z,24.73
2022-08-09T08:15:24.281Z,25.40
2022-08-09T08:30:23.900Z,25.67
2022-08-09T08:45:37.405Z,25.53
2022-08-09T09:00:27.562Z,25.23
2022-08-09T09:15:27.952Z,25.17
2022-08-09T09:30:38.144Z,25.15
2022-08-09T09:45:26.752Z,25.90
2022-08-09T10:00:24.911Z,25.20
2022-08-09T10:15:51.099Z,25.65
2022-08-09T10:32:42.857Z,25.85
2022-08-09T10:45:35.701Z,25.92
2022-08-09T11:00:33.145Z,26.30
2022-08-09T11:15:23.987Z,26.35
2022-08-09T11:30:33.448Z,26.53
2022-08-09T11:45:23.195Z,27.15
2022-08-09T12:00:28.357Z,27.27
2022-08-09T12:15:50.516Z,27.35
2022-08-09T12:30:38.740Z,27.67
2022-08-09T12:45:34.786Z,27.90
2022-08-09T13:00:25.407Z,28.05
2022-08-09T13:15:23.251Z,28.13
2022-08-09T13:30:50.100Z,28.43
2022-08-09T13:45:32.604Z,28.58
2022-08-09T14:00:23.333Z,28.57
2022-08-09T14:16:07.132Z,28.80
2022-08-09T14:30:41.355Z,29.10
2022-08-09T14:46:46.061Z,29.23
2022-08-09T15:00:23.319Z,29.40
2022-08-09T15:15:23.359Z,29.77
2022-08-09T15:30:57.361Z,29.80
2022-08-09T15:45:29.425Z,30.20
2022-08-09T16:00:29.584Z,30.35
2022-08-09T16:16:11.972Z,30.70
2022-08-09T16:30:28.526Z,30.53
2022-08-09T16:45:23.699Z,29.50
2022-08-09T17:00:23.537Z,29.50
2022-08-09T17:15:31.060Z,29.80
2022-08-09T17:30:25.686Z,29.67
2022-08-09T17:45:37.524Z,29.03
2022-08-09T18:00:33.605Z,28.48
2022-08-09T18:15:50.363Z,27.77
2022-08-09T18:30:39.574Z,26.92
2022-08-09T18:46:47.374Z,26.25
2022-08-09T19:00:23.712Z,25.50
2022-08-09T19:15:23.921Z,25.23
2022-08-09T19:30:28.553Z,24.55
2022-08-09T19:45:23.840Z,24.22
2022-08-09T20:00:23.984Z,23.77
2022-08-09T20:16:36.579Z,23.28
2022-08-09T20:30:24.135Z,23.07
2022-08-09T20:46:01.009Z,22.48
2022-08-09T21:00:32.090Z,22.43
2022-08-09T21:15:34.181Z,21.85
2022-08-09T21:30:24.973Z,21.60
2022-08-09T21:45:24.156Z,21.32
2022-08-09T22:00:35.554Z,22.00
2022-08-09T22:15:34.745Z,20.73
2022-08-09T22:30:26.069Z,20.38
2022-08-09T22:48:14.397Z,20.10
2022-08-09T23:00:24.166Z,19.80
2022-08-09T23:15:24.229Z,19.10
2022-08-09T23:30:33.299Z,19.38
2022-08-09T23:45:37.165Z,18.92
